createdAt,value
2022-07-29T00:01:49.962Z,0.90
2022-07-29T00:04:21.527Z,1.17
2022-07-29T00:06:51.743Z,1.07
2022-07-29T00:09:21.542Z,0.90
2022-07-29T00:11:51.517Z,1.20
2022-07-29T00:14:21.055Z,1.23
2022-07-29T00:16:51.220Z,0.88
2022-07-29T00:19:21.382Z,1.10
2022-07-29T00:21:51.247Z,1.13
2022-07-29T00:24:20.722Z,1.00
2022-07-29T00:26:50.536Z,1.03
2022-07-29T00:29:35.853Z,0.90
2022-07-29T00:31:52.260Z,1.10
2022-07-29T00:34:39.434Z,0.80
2022-07-29T00:37:09.354Z,0.77
2022-07-29T00:39:39.116Z,1.00
2022-07-29T00:42:09.136Z,1.13
2022-07-29T00:44:41.936Z,1.30
2022-07-29T00:47:12.766Z,1.03
2022-07-29T00:49:43.659Z,0.70
2022-07-29T00:52:17.022Z,0.97
2022-07-29T00:54:47.233Z,1.20
2022-07-29T00:57:17.074Z,1.27
2022-07-29T00:59:46.851Z,1.13
2022-07-29T01:02:17.394Z,1.20
2022-07-29T01:04:47.277Z,0.83
2022-07-29T01:07:18.062Z,0.90
2022-07-29T01:09:48.710Z,1.00
2022-07-29T01:12:21.242Z,1.00
2022-07-29T01:14:52.538Z,0.87
2022-07-29T01:17:58.487Z,1.10
2022-07-29T01:20:47.200Z,0.70
2022-07-29T01:23:35.115Z,0.70
2022-07-29T01:26:13.540Z,1.10
2022-07-29T01:29:09.426Z,1.20
2022-07-29T01:32:01.920Z,1.30
2022-07-29T01:34:46.364Z,1.75
2022-07-29T01:37:23.330Z,1.50
2022-07-29T01:39:56.427Z,1.40
2022-07-29T01:42:41.098Z,0.90
2022-07-29T01:45:19.250Z,1.42
2022-07-29T01:47:57.918Z,1.53
2022-07-29T01:50:30.730Z,1.87
2022-07-29T01:53:04.089Z,1.52
2022-07-29T01:55:39.585Z,1.80
2022-07-29T01:58:10.679Z,1.57
2022-07-29T02:00:43.665Z,1.70
2022-07-29T02:03:14.903Z,1.87
2022-07-29T02:05:48.117Z,1.60
2022-07-29T02:08:20.654Z,1.60
2022-07-29T02:10:52.355Z,1.90
2022-07-29T02:13:25.575Z,1.77
2022-07-29T02:15:57.682Z,1.60
2022-07-29T02:18:29.920Z,1.50
2022-07-29T02:21:01.725Z,1.70
2022-07-29T02:23:45.200Z,1.70
2022-07-29T02:26:07.093Z,1.50
2022-07-29T02:28:37.973Z,1.80
2022-07-29T02:31:09.287Z,1.50
2022-07-29T02:33:41.682Z,2.13
2022-07-29T02:36:12.450Z,1.70
2022-07-29T02:38:54.450Z,1.70
2022-07-29T02:41:32.916Z,1.40
2022-07-29T02:44:17.781Z,1.70
2022-07-29T02:47:14.130Z,2.00
2022-07-29T02:49:59.181Z,2.40
2022-07-29T02:52:33.188Z,2.10
2022-07-29T02:55:22.984Z,2.30
2022-07-29T02:58:05.306Z,2.27
2022-07-29T03:00:38.381Z,2.12
2022-07-29T03:03:13.629Z,3.00
2022-07-29T03:05:43.476Z,2.80
2022-07-29T03:08:16.601Z,2.87
2022-07-29T03:10:48.133Z,3.10
2022-07-29T03:13:18.141Z,2.65
2022-07-29T03:15:49.281Z,2.77
2022-07-29T03:18:19.631Z,3.17
2022-07-29T03:20:49.493Z,2.77
2022-07-29T03:23:23.774Z,2.80
2022-07-29T03:25:53.801Z,2.87
2022-07-29T03:28:24.508Z,3.12
2022-07-29T03:30:56.473Z,3.30
2022-07-29T03:33:26.963Z,3.40
2022-07-29T03:35:56.737Z,3.43
2022-07-29T03:38:28.952Z,3.20
2022-07-29T03:41:04.243Z,3.00
2022-07-29T03:43:37.096Z,3.30
2022-07-29T03:46:10.959Z,3.02
2022-07-29T03:48:43.944Z,3.40
2022-07-29T03:51:14.787Z,3.50
2022-07-29T03:53:44.836Z,3.73
2022-07-29T03:56:18.316Z,3.60
2022-07-29T03:58:48.549Z,3.83
2022-07-29T04:01:19.349Z,3.27
2022-07-29T04:03:49.458Z,3.73
2022-07-29T04:06:19.077Z,3.40
2022-07-29T04:08:48.991Z,3.50
2022-07-29T04:11:18.559Z,3.50
2022-07-29T04:13:48.391Z,3.83
2022-07-29T04:16:19.346Z,3.90
2022-07-29T04:18:49.201Z,3.43
2022-07-29T04:21:18.980Z,3.80
2022-07-29T04:23:53.798Z,3.20
2022-07-29T04:26:22.636Z,3.12
2022-07-29T04:28:52.424Z,3.70
2022-07-29T04:31:25.717Z,3.10
2022-07-29T04:33:53.853Z,3.10
2022-07-29T04:36:29.063Z,3.20
2022-07-29T04:38:55.091Z,3.30
2022-07-29T04:41:25.721Z,2.80
2022-07-29T04:43:56.324Z,2.87
2022-07-29T04:46:27.286Z,3.05
2022-07-29T04:48:57.198Z,3.20
2022-07-29T04:51:26.962Z,3.37
2022-07-29T04:53:56.735Z,3.10
2022-07-29T04:56:26.566Z,3.03
2022-07-29T04:58:56.483Z,3.03
2022-07-29T05:01:26.394Z,2.97
2022-07-29T05:04:00.312Z,3.17
2022-07-29T05:06:27.521Z,2.80
2022-07-29T05:08:57.752Z,2.67
2022-07-29T05:11:30.553Z,2.67
2022-07-29T05:13:59.018Z,2.70
2022-07-29T05:16:28.642Z,2.80
2022-07-29T05:18:58.416Z,2.70
2022-07-29T05:21:28.197Z,2.87
2022-07-29T05:23:57.675Z,3.00
2022-07-29T05:26:27.485Z,2.87
2022-07-29T05:28:57.923Z,3.30
2022-07-29T05:31:27.760Z,2.60
2022-07-29T05:33:57.535Z,2.70
2022-07-29T05:36:27.596Z,2.98
2022-07-29T05:38:57.110Z,3.30
2022-07-29T05:41:26.945Z,3.07
2022-07-29T05:43:56.714Z,3.10
2022-07-29T05:46:26.595Z,3.45
2022-07-29T05:48:57.250Z,2.80
2022-07-29T05:51:27.339Z,3.37
2022-07-29T05:53:57.174Z,3.57
2022-07-29T05:56:27.116Z,3.20
2022-07-29T05:58:56.884Z,3.00
2022-07-29T06:01:27.035Z,2.90
2022-07-29T06:03:56.940Z,3.13
2022-07-29T06:06:26.609Z,3.00
2022-07-29T06:08:56.384Z,3.20
2022-07-29T06:11:26.159Z,3.03
2022-07-29T06:13:55.662Z,3.55
2022-07-29T06:16:29.899Z,3.17
2022-07-29T06:18:56.966Z,3.63
2022-07-29T06:21:26.820Z,3.30
2022-07-29T06:23:56.594Z,3.27
2022-07-29T06:26:31.464Z,3.37
2022-07-29T06:28:57.863Z,3.23
2022-07-29T06:31:27.868Z,3.13
2022-07-29T06:33:57.642Z,3.50
2022-07-29T06:36:28.198Z,3.42
2022-07-29T06:38:58.722Z,3.40
2022-07-29T06:41:28.980Z,2.70
2022-07-29T06:44:00.495Z,2.90
2022-07-29T06:46:30.257Z,3.08
2022-07-29T06:49:01.858Z,3.00
2022-07-29T06:51:31.796Z,3.37
2022-07-29T06:54:03.355Z,3.77
2022-07-29T06:56:39.419Z,3.90
2022-07-29T06:59:06.589Z,2.90
2022-07-29T07:01:38.012Z,3.60
2022-07-29T07:04:09.994Z,3.12
2022-07-29T07:06:40.222Z,2.93
2022-07-29T07:09:09.991Z,3.00
2022-07-29T07:11:39.877Z,2.70
2022-07-29T07:14:10.269Z,3.12
2022-07-29T07:16:40.126Z,3.20
2022-07-29T07:19:10.403Z,3.37
2022-07-29T07:21:40.205Z,3.47
2022-07-29T07:24:10.339Z,2.90
2022-07-29T07:26:40.882Z,3.10
2022-07-29T07:29:10.660Z,3.10
2022-07-29T07:31:40.768Z,3.27
2022-07-29T07:34:10.330Z,3.30
2022-07-29T07:36:40.109Z,3.70
2022-07-29T07:39:10.182Z,3.20
2022-07-29T07:41:39.951Z,3.10
2022-07-29T07:44:15.663Z,3.65
2022-07-29T07:46:42.051Z,3.33
2022-07-29T07:49:12.761Z,3.70
2022-07-29T07:51:42.629Z,3.93
2022-07-29T07:54:15.568Z,3.47
2022-07-29T07:56:45.531Z,3.37
2022-07-29T07:59:15.312Z,3.20
2022-07-29T08:01:47.956Z,3.50
2022-07-29T08:04:17.712Z,3.34
2022-07-29T08:06:49.967Z,3.07
2022-07-29T08:09:29.370Z,3.35
2022-07-29T08:11:51.773Z,2.77
2022-07-29T08:14:22.105Z,3.23
2022-07-29T08:16:52.366Z,2.83
2022-07-29T08:19:22.421Z,2.53
2022-07-29T08:21:55.141Z,3.05
2022-07-29T08:24:42.731Z,3.37
2022-07-29T08:27:40.596Z,3.10
2022-07-29T08:29:45.281Z,3.40
2022-07-29T08:32:30.995Z,3.22
2022-07-29T08:34:47.808Z,3.50
2022-07-29T08:37:17.578Z,3.27
2022-07-29T08:39:47.427Z,3.30
2022-07-29T08:42:17.793Z,2.92
2022-07-29T08:44:47.643Z,3.43
2022-07-29T08:47:17.943Z,3.10
2022-07-29T08:49:49.395Z,3.20
2022-07-29T08:52:19.990Z,3.62
2022-07-29T08:54:50.504Z,3.17
2022-07-29T08:57:21.622Z,3.20
2022-07-29T08:59:54.344Z,3.33
2022-07-29T09:02:25.865Z,3.50
2022-07-29T09:04:56.082Z,3.73
2022-07-29T09:07:25.857Z,3.27
2022-07-29T09:09:57.604Z,3.20
2022-07-29T09:12:29.063Z,3.70
2022-07-29T09:14:59.375Z,2.77
2022-07-29T09:17:45.734Z,3.40
2022-07-29T09:20:19.514Z,3.60
2022-07-29T09:22:51.338Z,3.63
2022-07-29T09:25:38.065Z,3.60
2022-07-29T09:28:13.085Z,3.58
2022-07-29T09:31:02.097Z,3.25
2022-07-29T09:33:36.651Z,3.20
2022-07-29T09:36:10.273Z,2.98
2022-07-29T09:38:39.791Z,3.20
2022-07-29T09:41:11.027Z,3.33
2022-07-29T09:43:42.046Z,2.77
2022-07-29T09:46:14.071Z,3.50
2022-07-29T09:48:43.907Z,3.00
2022-07-29T09:51:28.501Z,3.27
2022-07-29T09:53:55.192Z,3.03
2022-07-29T09:56:43.691Z,3.30
2022-07-29T09:59:13.546Z,2.50
2022-07-29T10:01:45.182Z,2.47
2022-07-29T10:04:14.727Z,2.92
2022-07-29T10:07:05.936Z,2.30
2022-07-29T10:09:36.345Z,2.93
2022-07-29T10:12:14.517Z,2.83
2022-07-29T10:14:44.631Z,3.10
2022-07-29T10:17:14.466Z,2.60
2022-07-29T10:19:44.586Z,2.37
2022-07-29T10:22:15.055Z,2.40
2022-07-29T10:24:45.454Z,2.70
2022-07-29T10:27:15.383Z,2.67
2022-07-29T10:29:45.161Z,2.40
2022-07-29T10:32:29.107Z,2.80
2022-07-29T10:35:04.618Z,2.27
2022-07-29T10:37:55.302Z,2.20
2022-07-29T10:40:55.002Z,2.33
2022-07-29T10:43:38.704Z,2.83
2022-07-29T10:46:09.042Z,2.43
2022-07-29T10:49:12.159Z,1.90
2022-07-29T10:52:11.362Z,2.60
2022-07-29T10:59:53.025Z,1.67
2022-07-29T11:02:41.740Z,2.30
2022-07-29T11:08:21.084Z,2.05
2022-07-29T11:10:52.770Z,2.40
2022-07-29T11:13:55.185Z,2.60
2022-07-29T11:16:26.463Z,2.10
2022-07-29T11:19:14.468Z,2.37
2022-07-29T11:22:00.333Z,2.62
2022-07-29T11:24:28.920Z,2.50
2022-07-29T11:27:14.604Z,1.80
2022-07-29T11:29:54.583Z,1.73
2022-07-29T11:32:29.245Z,1.70
2022-07-29T11:35:36.734Z,1.53
2022-07-29T11:38:17.763Z,1.87
2022-07-29T11:41:07.894Z,2.20
2022-07-29T11:43:59.933Z,1.97
2022-07-29T11:46:50.825Z,2.08
2022-07-29T11:49:32.158Z,2.10
2022-07-29T11:52:02.543Z,1.83
2022-07-29T11:54:38.915Z,1.57
2022-07-29T11:57:09.834Z,1.90
2022-07-29T11:59:45.452Z,1.90
2022-07-29T12:05:00.401Z,2.30
2022-07-29T12:07:34.836Z,2.10
2022-07-29T12:10:04.321Z,2.03
2022-07-29T12:12:36.789Z,2.50
2022-07-29T12:15:19.009Z,2.33
2022-07-29T12:17:50.623Z,2.27
2022-07-29T12:20:27.959Z,1.92
2022-07-29T12:22:58.451Z,1.83
2022-07-29T12:25:32.354Z,2.00
2022-07-29T12:28:02.451Z,2.10
2022-07-29T12:30:45.000Z,2.80
2022-07-29T12:33:17.478Z,2.50
2022-07-29T12:36:03.419Z,2.77
2022-07-29T12:38:22.164Z,2.40
2022-07-29T12:40:53.683Z,2.50
2022-07-29T12:43:25.583Z,2.27
2022-07-29T12:45:58.028Z,2.37
2022-07-29T12:48:38.842Z,1.93
2022-07-29T12:51:10.904Z,2.30
2022-07-29T12:53:41.209Z,1.77
2022-07-29T12:56:33.154Z,1.70
2022-07-29T12:58:49.427Z,2.00
2022-07-29T13:01:20.814Z,3.90
2022-07-29T13:03:56.999Z,1.90
2022-07-29T13:06:39.234Z,2.03
2022-07-29T13:09:16.675Z,1.50
2022-07-29T13:11:48.949Z,1.60
2022-07-29T13:14:36.421Z,1.45
2022-07-29T13:17:16.497Z,1.63
2022-07-29T13:19:51.939Z,1.30
2022-07-29T13:22:27.356Z,1.70
2022-07-29T13:25:04.221Z,1.40
2022-07-29T13:27:35.424Z,0.80
2022-07-29T13:30:08.795Z,0.97
2022-07-29T13:32:38.740Z,1.47
2022-07-29T13:35:09.898Z,1.10
2022-07-29T13:37:39.785Z,1.17
2022-07-29T13:40:11.408Z,1.70
2022-07-29T13:42:41.873Z,1.10
2022-07-29T13:45:12.870Z,1.37
2022-07-29T13:47:47.715Z,0.95
2022-07-29T13:50:14.921Z,1.12
2022-07-29T13:52:44.691Z,1.43
2022-07-29T13:55:14.153Z,1.20
2022-07-29T13:57:43.643Z,1.60
2022-07-29T14:00:14.373Z,1.53
2022-07-29T14:02:44.789Z,1.40
2022-07-29T14:05:14.572Z,1.32
2022-07-29T14:07:44.630Z,1.30
2022-07-29T14:10:19.801Z,1.30
2022-07-29T14:12:47.126Z,1.20
2022-07-29T14:15:16.856Z,1.30
2022-07-29T14:17:46.615Z,1.57
2022-07-29T14:20:16.589Z,1.40
2022-07-29T14:22:47.015Z,1.40
2022-07-29T14:25:16.766Z,1.98
2022-07-29T14:27:46.540Z,1.60
2022-07-29T14:30:16.187Z,1.27
2022-07-29T14:32:46.995Z,1.60
2022-07-29T14:35:16.847Z,1.75
2022-07-29T14:37:46.605Z,1.60
2022-07-29T14:40:16.377Z,1.77
2022-07-29T14:42:46.190Z,1.63
2022-07-29T14:45:16.073Z,1.70
2022-07-29T14:47:45.859Z,2.07
2022-07-29T14:50:16.200Z,1.40
2022-07-29T14:52:47.828Z,1.50
2022-07-29T14:55:19.763Z,1.63
2022-07-29T14:57:50.880Z,2.13
2022-07-29T15:00:21.564Z,2.30
2022-07-29T15:03:02.025Z,2.00
2022-07-29T15:05:22.803Z,1.20
2022-07-29T15:07:52.283Z,1.70
2022-07-29T15:10:24.784Z,1.57
2022-07-29T15:12:55.201Z,1.27
2022-07-29T15:15:25.144Z,1.70
2022-07-29T15:17:54.990Z,1.73
2022-07-29T15:20:26.183Z,1.60
2022-07-29T15:22:56.961Z,1.80
2022-07-29T15:25:28.354Z,1.60
2022-07-29T15:28:01.812Z,2.02
2022-07-29T15:30:38.208Z,1.70
2022-07-29T15:33:09.230Z,1.87
2022-07-29T15:35:40.485Z,2.15
2022-07-29T15:38:11.631Z,2.82
2022-07-29T15:40:43.121Z,6.00
2022-07-29T15:43:12.931Z,3.33
2022-07-29T15:46:02.247Z,2.30
2022-07-29T15:48:32.374Z,1.80
2022-07-29T15:51:02.215Z,1.90
2022-07-29T15:53:31.986Z,1.90
2022-07-29T15:56:02.831Z,1.87
2022-07-29T15:58:33.671Z,1.65
2022-07-29T16:01:03.501Z,1.43
2022-07-29T16:03:33.421Z,1.50
2022-07-29T16:06:03.188Z,1.47
2022-07-29T16:08:32.942Z,1.50
2022-07-29T16:11:03.086Z,1.50
2022-07-29T16:13:32.845Z,1.57
2022-07-29T16:16:03.224Z,1.43
2022-07-29T16:18:33.419Z,1.40
2022-07-29T16:21:03.362Z,1.60
2022-07-29T16:23:33.119Z,1.70
2022-07-29T16:26:03.183Z,1.72
2022-07-29T16:28:33.116Z,1.20
2022-07-29T16:31:02.962Z,1.97
2022-07-29T16:33:54.783Z,1.53
2022-07-29T16:36:06.914Z,1.40
2022-07-29T16:38:38.044Z,1.20
2022-07-29T16:41:09.780Z,1.43
2022-07-29T16:43:39.547Z,1.67
2022-07-29T16:46:14.693Z,1.35
2022-07-29T16:48:43.754Z,1.50
2022-07-29T16:51:15.062Z,1.80
2022-07-29T16:53:45.077Z,1.53
2022-07-29T16:56:15.710Z,1.42
2022-07-29T16:58:45.474Z,1.40
2022-07-29T17:01:16.044Z,1.63
2022-07-29T17:04:03.638Z,1.20
2022-07-29T17:06:39.546Z,1.33
2022-07-29T17:09:11.767Z,1.62
2022-07-29T17:11:53.448Z,1.70
2022-07-29T17:14:13.671Z,1.32
2022-07-29T17:16:43.575Z,1.33
2022-07-29T17:19:14.966Z,1.60
2022-07-29T17:21:46.759Z,1.80
2022-07-29T17:24:16.931Z,1.50
2022-07-29T17:26:46.941Z,1.40
2022-07-29T17:29:17.061Z,1.30
2022-07-29T17:31:46.885Z,1.30
2022-07-29T17:34:16.662Z,1.44
2022-07-29T17:36:46.791Z,1.37
2022-07-29T17:39:16.868Z,1.50
2022-07-29T17:41:46.872Z,1.53
2022-07-29T17:44:16.810Z,1.20
2022-07-29T17:46:46.702Z,1.57
2022-07-29T17:49:16.633Z,1.07
2022-07-29T17:51:46.437Z,1.23
2022-07-29T17:54:16.135Z,1.30
2022-07-29T17:56:46.062Z,1.50
2022-07-29T17:59:15.849Z,1.37
2022-07-29T18:01:45.967Z,1.10
2022-07-29T18:04:17.385Z,1.25
2022-07-29T18:06:47.160Z,1.20
2022-07-29T18:09:16.919Z,0.87
2022-07-29T18:11:48.318Z,1.50
2022-07-29T18:14:18.080Z,1.10
2022-07-29T18:16:47.950Z,1.50
2022-07-29T18:19:17.757Z,1.47
2022-07-29T18:21:51.942Z,0.90
2022-07-29T18:24:18.771Z,1.10
2022-07-29T18:26:48.546Z,1.23
2022-07-29T18:29:18.321Z,1.17
2022-07-29T18:31:48.214Z,1.10
2022-07-29T18:34:18.022Z,1.60
2022-07-29T18:36:47.781Z,1.13
2022-07-29T18:39:20.591Z,1.20
2022-07-29T18:41:51.169Z,1.27
2022-07-29T18:44:22.684Z,1.30
2022-07-29T18:46:53.344Z,1.60
2022-07-29T18:49:24.292Z,1.23
2022-07-29T18:51:54.133Z,1.13
2022-07-29T18:54:24.140Z,1.22
2022-07-29T18:56:55.085Z,1.40
2022-07-29T18:59:25.396Z,1.60
2022-07-29T19:01:55.015Z,1.30
2022-07-29T19:04:24.831Z,1.62
2022-07-29T19:06:54.605Z,1.67
2022-07-29T19:09:24.448Z,1.40
2022-07-29T19:11:56.293Z,1.40
2022-07-29T19:14:25.511Z,1.70
2022-07-29T19:16:55.502Z,1.30
2022-07-29T19:19:25.337Z,1.30
2022-07-29T19:21:55.174Z,1.23
2022-07-29T19:24:24.724Z,1.30
2022-07-29T19:26:54.488Z,1.90
2022-07-29T19:29:25.249Z,1.20
2022-07-29T19:31:55.155Z,1.40
2022-07-29T19:34:24.637Z,1.30
2022-07-29T19:36:54.803Z,1.35
2022-07-29T19:39:34.950Z,1.40
2022-07-29T19:41:59.199Z,1.63
2022-07-29T19:44:27.873Z,1.50
2022-07-29T19:46:59.756Z,1.37
2022-07-29T19:49:29.734Z,1.63
2022-07-29T19:51:59.255Z,1.45
2022-07-29T19:54:29.583Z,1.40
2022-07-29T19:57:00.030Z,1.80
2022-07-29T19:59:31.729Z,1.50
2022-07-29T20:02:01.957Z,1.60
2022-07-29T20:04:31.734Z,1.53
2022-07-29T20:07:02.192Z,1.50
2022-07-29T20:09:32.125Z,2.40
2022-07-29T20:12:01.963Z,2.23
2022-07-29T20:14:31.732Z,1.40
2022-07-29T20:17:01.950Z,2.20
2022-07-29T20:19:32.817Z,1.75
2022-07-29T20:22:03.027Z,1.87
2022-07-29T20:24:32.786Z,1.80
2022-07-29T20:27:02.875Z,1.70
2022-07-29T20:29:34.008Z,1.70
2022-07-29T20:32:05.678Z,2.17
2022-07-29T20:34:35.243Z,1.80
2022-07-29T20:37:05.146Z,2.00
2022-07-29T20:39:34.912Z,1.80
2022-07-29T20:42:06.790Z,2.00
2022-07-29T20:44:36.833Z,2.00
2022-07-29T20:47:06.545Z,1.80
2022-07-29T20:49:36.553Z,1.53
2022-07-29T20:52:08.451Z,1.98
2022-07-29T20:54:38.221Z,2.30
2022-07-29T20:57:08.156Z,2.30
2022-07-29T20:59:38.614Z,1.90
2022-07-29T21:02:11.542Z,1.73
2022-07-29T21:04:43.190Z,2.08
2022-07-29T21:07:12.966Z,1.90
2022-07-29T21:09:42.727Z,1.63
2022-07-29T21:12:13.615Z,2.27
2022-07-29T21:14:49.322Z,2.00
2022-07-29T21:17:22.462Z,1.70
2022-07-29T21:19:53.194Z,1.80
2022-07-29T21:22:22.849Z,2.70
2022-07-29T21:24:52.606Z,2.00
2022-07-29T21:27:39.677Z,2.75
2022-07-29T21:30:11.409Z,2.90
2022-07-29T21:32:41.222Z,2.97
2022-07-29T21:35:23.384Z,2.80
2022-07-29T21:37:43.539Z,2.67
2022-07-29T21:40:14.713Z,3.08
2022-07-29T21:42:44.481Z,2.83
2022-07-29T21:45:15.714Z,3.05
2022-07-29T21:47:45.221Z,3.50
2022-07-29T21:50:15.132Z,3.30
2022-07-29T21:52:44.906Z,3.90
2022-07-29T21:55:14.616Z,3.02
2022-07-29T21:57:44.764Z,2.75
2022-07-29T22:00:16.272Z,2.92
2022-07-29T22:02:46.399Z,3.63
2022-07-29T22:05:16.342Z,4.12
2022-07-29T22:07:56.069Z,3.47
2022-07-29T22:10:18.088Z,4.53
2022-07-29T22:12:49.392Z,4.00
2022-07-29T22:15:19.277Z,3.37
2022-07-29T22:17:49.056Z,4.03
2022-07-29T22:20:19.238Z,3.98
2022-07-29T22:22:49.097Z,4.40
2022-07-29T22:25:18.937Z,4.10
2022-07-29T22:27:49.638Z,3.63
2022-07-29T22:30:19.435Z,4.37
2022-07-29T22:32:49.525Z,4.23
2022-07-29T22:35:18.999Z,5.00
2022-07-29T22:37:48.809Z,5.00
2022-07-29T22:40:18.356Z,4.78
2022-07-29T22:42:48.130Z,4.80
2022-07-29T22:45:17.608Z,5.13
2022-07-29T22:47:48.512Z,4.80
2022-07-29T22:50:18.907Z,4.08
2022-07-29T22:52:48.690Z,4.33
2022-07-29T22:55:18.501Z,5.42
2022-07-29T22:57:48.268Z,5.17
2022-07-29T23:00:18.146Z,5.27
2022-07-29T23:02:47.914Z,4.90
2022-07-29T23:05:17.688Z,5.28
2022-07-29T23:07:47.262Z,5.50
2022-07-29T23:10:17.114Z,5.97
2022-07-29T23:12:46.892Z,5.63
2022-07-29T23:15:16.738Z,5.95
2022-07-29T23:17:47.894Z,5.70
2022-07-29T23:20:17.781Z,6.33
2022-07-29T23:22:47.562Z,5.97
2022-07-29T23:25:17.375Z,5.50
2022-07-29T23:27:47.452Z,6.33
2022-07-29T23:30:17.013Z,5.90
2022-07-29T23:32:46.781Z,6.03
2022-07-29T23:35:16.633Z,6.30
2022-07-29T23:37:46.586Z,7.23
2022-07-29T23:40:16.702Z,6.63
2022-07-29T23:42:47.013Z,6.00
2022-07-29T23:45:16.802Z,6.78
2022-07-29T23:47:46.639Z,7.53
2022-07-29T23:50:16.752Z,6.77
2022-07-29T23:52:46.363Z,6.65
2022-07-29T23:55:36.633Z,7.60
2022-07-29T23:57:47.132Z,7.80
